Time;durP1;ratioP1;P1;durP2;ratioP2;P2;SDS_P1;SDS_P2;PMS_P1;PMS_P2;Temp;Humidity;BMP_temperature;BMP_pressure;BME280_temperature;BME280_humidity;BME280_pressure;Samples;Min_cycle;Max_cycle;Signal;HPM_P1;HPM_P2
2023/04/09 00:01:09;;;;;;;12.13;2.90;;;;;;;;;;5113106;28;20118;-37
2023/04/09 00:03:37;;;;;;;11.73;2.97;;;;;;;;;;5111926;28;20035;-37
2023/04/09 00:06:04;;;;;;;12.27;3.38;;;;;;;;;;5113099;28;20028;-37
2023/04/09 00:08:31;;;;;;;11.38;3.03;;;;;;;;;;5112938;28;20142;-37
2023/04/09 00:10:59;;;;;;;9.07;2.95;;;;;;;;;;5112874;28;20076;-37
2023/04/09 00:13:26;;;;;;;9.85;3.33;;;;;;;;;;5112910;28;20121;-37
2023/04/09 00:15:53;;;;;;;14.30;3.13;;;;;;;;;;5112917;28;20469;-37
2023/04/09 00:18:20;;;;;;;16.20;3.08;;;;;;;;;;5112784;28;20511;-37
2023/04/09 00:20:47;;;;;;;11.70;2.70;;;;;;;;;;5112647;28;20030;-37
2023/04/09 00:23:14;;;;;;;11.50;2.70;;;;;;;;;;5094378;28;20434;-37
2023/04/09 00:25:41;;;;;;;9.63;2.63;;;;;;;;;;5112647;28;20023;-37
2023/04/09 00:28:08;;;;;;;8.73;2.63;;;;;;;;;;5112716;28;20043;-37
2023/04/09 00:30:35;;;;;;;7.13;2.78;;;;;;;;;;5112877;28;20113;-37
2023/04/09 00:33:02;;;;;;;10.88;3.00;;;;;;;;;;5112617;28;20036;-38
2023/04/09 00:35:29;;;;;;;13.60;3.28;;;;;;;;;;5112549;28;20026;-37
2023/04/09 00:37:56;;;;;;;12.50;2.92;;;;;;;;;;5112508;28;20080;-37
2023/04/09 00:40:23;;;;;;;10.48;3.05;;;;;;;;;;5112375;28;20027;-37
2023/04/09 00:42:50;;;;;;;4.22;2.42;;;;;;;;;;5112468;28;20065;-37
2023/04/09 00:45:17;;;;;;;11.35;2.90;;;;;;;;;;5112386;28;20027;-37
2023/04/09 00:47:45;;;;;;;8.18;2.92;;;;;;;;;;5112324;28;20477;-37
2023/04/09 00:50:12;;;;;;;9.35;3.00;;;;;;;;;;5112065;28;20055;-37
2023/04/09 00:52:39;;;;;;;10.10;2.60;;;;;;;;;;5112391;28;20073;-37
2023/04/09 00:55:06;;;;;;;10.55;2.83;;;;;;;;;;5112201;28;20043;-37
2023/04/09 00:57:33;;;;;;;10.70;2.50;;;;;;;;;;5112038;28;20405;-38
2023/04/09 01:00:00;;;;;;;7.50;2.85;;;;;;;;;;5112185;28;20024;-37
2023/04/09 01:02:28;;;;;;;9.98;2.88;;;;;;;;;;5112256;28;20040;-37
2023/04/09 01:04:55;;;;;;;8.35;2.97;;;;;;;;;;5112019;28;20085;-37
2023/04/09 01:07:35;;;;;;;12.23;2.90;;;;;;;;;;5093943;28;20451;-37
2023/04/09 01:10:21;;;;;;;6.75;2.67;;;;;;;;;;5111925;28;20439;-37
2023/04/09 01:13:08;;;;;;;9.32;2.83;;;;;;;;;;5101259;28;20043;-37
2023/04/09 01:15:40;;;;;;;6.95;2.42;;;;;;;;;;5114728;28;20020;-38
2023/04/09 01:18:12;;;;;;;5.78;2.70;;;;;;;;;;5116166;28;20063;-37
2023/04/09 01:20:59;;;;;;;8.07;3.00;;;;;;;;;;5116267;28;20031;-37
2023/04/09 01:23:26;;;;;;;8.77;2.72;;;;;;;;;;5116553;28;20084;-37
2023/04/09 01:25:53;;;;;;;10.25;3.00;;;;;;;;;;5116560;28;20052;-37
2023/04/09 01:28:25;;;;;;;4.82;2.58;;;;;;;;;;5116228;28;20059;-37
2023/04/09 01:31:02;;;;;;;9.20;2.60;;;;;;;;;;5116023;28;20024;-37
2023/04/09 01:33:31;;;;;;;10.73;2.75;;;;;;;;;;5115993;28;20469;-37
2023/04/09 01:35:59;;;;;;;8.77;3.47;;;;;;;;;;5115821;28;20031;-37
2023/04/09 01:38:26;;;;;;;8.35;2.78;;;;;;;;;;5115727;28;20031;-37
2023/04/09 01:40:54;;;;;;;5.90;2.35;;;;;;;;;;5115793;28;20020;-37
2023/04/09 01:43:21;;;;;;;8.07;2.38;;;;;;;;;;5115898;28;20054;-37
2023/04/09 01:45:48;;;;;;;8.23;2.95;;;;;;;;;;5115861;28;20118;-37
2023/04/09 01:48:16;;;;;;;8.25;2.75;;;;;;;;;;5097393;28;20518;-37
2023/04/09 01:50:43;;;;;;;6.97;2.78;;;;;;;;;;5115585;28;20028;-37
2023/04/09 01:53:10;;;;;;;8.02;2.50;;;;;;;;;;5115695;28;20427;-37
2023/04/09 01:55:37;;;;;;;7.40;2.60;;;;;;;;;;5115474;28;20024;-37
2023/04/09 01:58:04;;;;;;;4.53;2.42;;;;;;;;;;5115488;28;20031;-37
2023/04/09 02:00:35;;;;;;;5.90;2.55;;;;;;;;;;5115499;28;20019;-37
2023/04/09 02:03:16;;;;;;;5.78;2.20;;;;;;;;;;5115333;28;20043;-37
2023/04/09 02:05:49;;;;;;;6.47;2.72;;;;;;;;;;5115325;28;20030;-37
2023/04/09 02:08:19;;;;;;;4.38;2.30;;;;;;;;;;5115258;28;20031;-37
2023/04/09 02:10:52;;;;;;;8.32;2.40;;;;;;;;;;5096859;28;20383;-37
2023/04/09 02:13:20;;;;;;;8.30;2.78;;;;;;;;;;5115480;28;20114;-37
2023/04/09 02:15:47;;;;;;;4.32;2.15;;;;;;;;;;5115214;28;20033;-37
2023/04/09 02:18:21;;;;;;;4.63;2.30;;;;;;;;;;5115219;28;20409;-37
2023/04/09 02:20:48;;;;;;;4.75;2.03;;;;;;;;;;5115060;28;20367;-37
2023/04/09 02:23:16;;;;;;;6.03;2.30;;;;;;;;;;5115080;28;20427;-37
2023/04/09 02:25:43;;;;;;;7.60;2.55;;;;;;;;;;5114392;28;20032;-38
2023/04/09 02:28:10;;;;;;;6.00;2.25;;;;;;;;;;5114613;28;20539;-37
2023/04/09 02:30:37;;;;;;;5.55;2.22;;;;;;;;;;5114802;28;20020;-37
2023/04/09 02:33:04;;;;;;;6.25;2.33;;;;;;;;;;5096537;28;20032;-37
2023/04/09 02:35:31;;;;;;;6.57;2.42;;;;;;;;;;5114889;28;20049;-37
2023/04/09 02:37:58;;;;;;;6.78;2.47;;;;;;;;;;5096367;28;20435;-37
2023/04/09 02:40:25;;;;;;;4.25;2.40;;;;;;;;;;5114603;28;20048;-37
2023/04/09 02:42:52;;;;;;;5.43;2.25;;;;;;;;;;5114641;28;20042;-37
2023/04/09 02:45:19;;;;;;;6.43;2.60;;;;;;;;;;5114634;28;20478;-37
2023/04/09 02:47:46;;;;;;;5.22;2.20;;;;;;;;;;5114429;28;20076;-37
2023/04/09 02:50:13;;;;;;;5.63;1.80;;;;;;;;;;5114444;28;20057;-37
2023/04/09 02:52:40;;;;;;;6.53;2.30;;;;;;;;;;5114560;28;20037;-38
2023/04/09 02:55:07;;;;;;;7.47;2.17;;;;;;;;;;5114415;28;20023;-37
2023/04/09 02:57:35;;;;;;;5.40;2.25;;;;;;;;;;5114174;28;20040;-37
2023/04/09 03:00:02;;;;;;;5.35;1.95;;;;;;;;;;5114282;28;20158;-37
2023/04/09 03:02:29;;;;;;;5.75;2.35;;;;;;;;;;5114301;28;20024;-37
2023/04/09 03:04:56;;;;;;;5.63;2.28;;;;;;;;;;5114149;28;20040;-38
2023/04/09 03:07:23;;;;;;;3.20;1.95;;;;;;;;;;5114169;28;20040;-37
2023/04/09 03:09:50;;;;;;;4.72;1.92;;;;;;;;;;5114061;28;20076;-37
2023/04/09 03:12:17;;;;;;;6.90;2.20;;;;;;;;;;5114101;28;20105;-37
2023/04/09 03:14:44;;;;;;;5.07;2.15;;;;;;;;;;5114085;28;20481;-37
2023/04/09 03:17:11;;;;;;;5.90;2.15;;;;;;;;;;5114043;28;20036;-37
2023/04/09 03:19:38;;;;;;;3.40;1.85;;;;;;;;;;5114014;28;20080;-37
2023/04/09 03:22:05;;;;;;;3.60;1.88;;;;;;;;;;5113968;28;20020;-37
2023/04/09 03:24:32;;;;;;;4.00;2.20;;;;;;;;;;5113902;28;20031;-37
2023/04/09 03:27:00;;;;;;;4.85;2.22;;;;;;;;;;5113815;28;20073;-37
2023/04/09 03:29:27;;;;;;;4.80;2.03;;;;;;;;;;5113611;28;20066;-37
2023/04/09 03:31:54;;;;;;;3.63;1.92;;;;;;;;;;5113649;28;20075;-37
2023/04/09 03:34:21;;;;;;;3.60;2.33;;;;;;;;;;5113707;28;20085;-37
2023/04/09 03:36:48;;;;;;;3.10;1.80;;;;;;;;;;5113525;28;20035;-37
2023/04/09 03:39:15;;;;;;;3.17;1.80;;;;;;;;;;5113414;28;20023;-37
2023/04/09 03:41:42;;;;;;;4.03;1.80;;;;;;;;;;5113382;28;20136;-37
2023/04/09 03:44:09;;;;;;;4.15;2.00;;;;;;;;;;5113547;28;20024;-37
2023/04/09 03:46:36;;;;;;;4.10;1.88;;;;;;;;;;5113367;28;20135;-37
2023/04/09 03:49:03;;;;;;;4.00;1.60;;;;;;;;;;5113389;28;20023;-37
2023/04/09 03:51:30;;;;;;;3.03;1.90;;;;;;;;;;5113166;28;20402;-37
2023/04/09 03:53:57;;;;;;;4.47;1.90;;;;;;;;;;5113140;28;20031;-37
2023/04/09 03:56:24;;;;;;;4.25;1.98;;;;;;;;;;5113085;28;20059;-37
2023/04/09 03:58:51;;;;;;;2.95;1.42;;;;;;;;;;5113240;28;20497;-37
2023/04/09 04:01:18;;;;;;;3.90;1.90;;;;;;;;;;5113097;28;20019;-37
2023/04/09 04:03:45;;;;;;;3.83;1.85;;;;;;;;;;5113157;28;20042;-37
2023/04/09 04:06:12;;;;;;;3.83;1.75;;;;;;;;;;5113119;28;20293;-37
2023/04/09 04:08:39;;;;;;;4.45;1.85;;;;;;;;;;5113012;28;20091;-37
2023/04/09 04:11:06;;;;;;;4.60;1.60;;;;;;;;;;5112778;28;20167;-37
2023/04/09 04:13:33;;;;;;;4.47;1.70;;;;;;;;;;5112935;28;20032;-37
2023/04/09 04:16:00;;;;;;;4.25;1.85;;;;;;;;;;5112934;28;20023;-37
2023/04/09 04:18:27;;;;;;;2.70;1.55;;;;;;;;;;5112854;28;20054;-37
2023/04/09 04:20:54;;;;;;;4.53;1.77;;;;;;;;;;5112736;28;20020;-37
2023/04/09 04:23:21;;;;;;;3.75;1.63;;;;;;;;;;5112704;28;20397;-37
2023/04/09 04:25:48;;;;;;;4.72;1.80;;;;;;;;;;5112842;28;20035;-37
2023/04/09 04:28:15;;;;;;;3.65;2.03;;;;;;;;;;5112645;28;20111;-37
2023/04/09 04:30:42;;;;;;;3.85;1.98;;;;;;;;;;5112595;28;20119;-37
2023/04/09 04:33:09;;;;;;;1.98;1.23;;;;;;;;;;5112413;28;20439;-37
2023/04/09 04:35:36;;;;;;;3.17;1.60;;;;;;;;;;5112566;28;20470;-37
2023/04/09 04:38:03;;;;;;;3.22;1.77;;;;;;;;;;5112574;28;20034;-37
2023/04/09 04:40:30;;;;;;;2.97;1.70;;;;;;;;;;5112509;28;20034;-37
2023/04/09 04:42:57;;;;;;;2.50;1.52;;;;;;;;;;5112382;28;20035;-37
2023/04/09 04:45:24;;;;;;;2.72;1.58;;;;;;;;;;5112442;28;20054;-37
2023/04/09 04:47:51;;;;;;;2.05;1.30;;;;;;;;;;5112387;28;20393;-37
2023/04/09 04:50:18;;;;;;;2.80;1.77;;;;;;;;;;5111687;28;20110;-37
2023/04/09 04:52:45;;;;;;;2.50;1.30;;;;;;;;;;5112365;28;20397;-37
2023/04/09 04:55:12;;;;;;;3.28;1.50;;;;;;;;;;5112354;28;20035;-37
2023/04/09 04:57:39;;;;;;;4.28;1.73;;;;;;;;;;5112056;28;20062;-37
2023/04/09 05:00:07;;;;;;;3.47;1.60;;;;;;;;;;5112113;28;20104;-37
2023/04/09 05:02:34;;;;;;;3.65;1.48;;;;;;;;;;5112036;28;20059;-37
2023/04/09 05:05:01;;;;;;;3.95;1.60;;;;;;;;;;5112213;28;20062;-37
2023/04/09 05:07:28;;;;;;;3.10;1.50;;;;;;;;;;5112081;28;20063;-37
2023/04/09 05:09:55;;;;;;;3.75;1.30;;;;;;;;;;5112071;28;20091;-37
2023/04/09 05:12:23;;;;;;;2.95;1.58;;;;;;;;;;5112119;28;20119;-37
2023/04/09 05:14:50;;;;;;;5.18;1.80;;;;;;;;;;5112117;28;20035;-37
2023/04/09 05:17:17;;;;;;;2.72;1.27;;;;;;;;;;5112088;28;20080;-37
2023/04/09 05:19:44;;;;;;;2.03;1.23;;;;;;;;;;5111919;28;20031;-37
2023/04/09 05:22:11;;;;;;;2.97;1.30;;;;;;;;;;5112029;28;20148;-37
2023/04/09 05:24:38;;;;;;;2.60;1.30;;;;;;;;;;5112028;28;20543;-37
2023/04/09 05:27:05;;;;;;;6.90;1.77;;;;;;;;;;5111935;28;20504;-37
2023/04/09 05:29:32;;;;;;;3.80;1.60;;;;;;;;;;5111912;28;20115;-37
2023/04/09 05:31:59;;;;;;;2.85;1.55;;;;;;;;;;5112255;28;20027;-37
2023/04/09 05:34:26;;;;;;;4.07;1.42;;;;;;;;;;5111862;28;20438;-37
2023/04/09 05:36:54;;;;;;;3.25;1.50;;;;;;;;;;5111914;28;20473;-37
2023/04/09 05:39:21;;;;;;;3.42;1.30;;;;;;;;;;5111716;28;20032;-37
2023/04/09 05:41:48;;;;;;;5.65;1.42;;;;;;;;;;5111991;28;20047;-37
2023/04/09 05:44:15;;;;;;;6.55;1.80;;;;;;;;;;5111602;28;20543;-37
2023/04/09 05:46:42;;;;;;;5.47;1.50;;;;;;;;;;5111756;28;20371;-37
2023/04/09 05:49:09;;;;;;;5.18;1.48;;;;;;;;;;5111807;28;20027;-37
2023/04/09 05:51:36;;;;;;;2.78;1.42;;;;;;;;;;5111555;28;20027;-37
2023/04/09 05:54:03;;;;;;;4.47;1.40;;;;;;;;;;5111720;28;20027;-37
2023/04/09 05:56:31;;;;;;;3.28;1.33;;;;;;;;;;5111490;28;20051;-37
2023/04/09 05:58:58;;;;;;;4.07;1.73;;;;;;;;;;5111773;28;20500;-38
2023/04/09 06:01:25;;;;;;;3.00;1.60;;;;;;;;;;5112623;28;20114;-37
2023/04/09 06:03:51;;;;;;;2.58;1.83;;;;;;;;;;5097193;28;20409;-37
2023/04/09 06:06:18;;;;;;;4.07;1.60;;;;;;;;;;5115429;28;20106;-37
2023/04/09 06:08:46;;;;;;;3.50;1.30;;;;;;;;;;5115377;28;20089;-37
2023/04/09 06:11:13;;;;;;;3.75;1.45;;;;;;;;;;5115282;28;20066;-37
2023/04/09 06:13:40;;;;;;;5.43;1.45;;;;;;;;;;5115324;28;20068;-37
2023/04/09 06:16:07;;;;;;;5.22;1.63;;;;;;;;;;5115211;28;20044;-38
2023/04/09 06:18:35;;;;;;;5.30;1.63;;;;;;;;;;5115197;28;20374;-37
2023/04/09 06:21:08;;;;;;;5.80;1.23;;;;;;;;;;5115064;28;20076;-37
2023/04/09 06:23:36;;;;;;;4.75;1.60;;;;;;;;;;5096747;28;20020;-38
2023/04/09 06:26:03;;;;;;;6.60;1.48;;;;;;;;;;5115117;28;20110;-37
2023/04/09 06:28:30;;;;;;;4.80;1.60;;;;;;;;;;5114948;28;20036;-37
2023/04/09 06:30:57;;;;;;;3.50;1.45;;;;;;;;;;5261293;22;20027;-42
2023/04/09 06:33:24;;;;;;;2.22;1.30;;;;;;;;;;5097464;28;20036;-45
2023/04/09 06:35:51;;;;;;;3.75;1.58;;;;;;;;;;5094520;28;20049;-44
2023/04/09 06:38:19;;;;;;;5.53;1.48;;;;;;;;;;5094436;28;20094;-47
2023/04/09 06:40:46;;;;;;;6.32;1.48;;;;;;;;;;5094297;28;20031;-43
2023/04/09 06:43:13;;;;;;;3.25;1.48;;;;;;;;;;5094220;28;20024;-45
2023/04/09 06:45:40;;;;;;;5.60;1.52;;;;;;;;;;5094367;28;20491;-44
2023/04/09 06:48:07;;;;;;;4.82;1.35;;;;;;;;;;5094083;28;20032;-47
2023/04/09 06:50:34;;;;;;;3.58;1.42;;;;;;;;;;5094218;28;20027;-46
2023/04/09 06:53:01;;;;;;;5.90;1.52;;;;;;;;;;5094130;28;20528;-45
2023/04/09 06:55:28;;;;;;;5.78;1.50;;;;;;;;;;5094264;28;20044;-46
2023/04/09 06:57:55;;;;;;;2.63;1.08;;;;;;;;;;5094072;28;20028;-46
2023/04/09 07:00:22;;;;;;;4.30;1.30;;;;;;;;;;5094035;28;20016;-43
2023/04/09 07:02:49;;;;;;;3.25;1.20;;;;;;;;;;5093850;28;20028;-44
2023/04/09 07:05:16;;;;;;;3.78;1.20;;;;;;;;;;5093873;28;20035;-44
2023/04/09 07:07:43;;;;;;;4.47;1.33;;;;;;;;;;5093855;28;20502;-44
2023/04/09 07:10:10;;;;;;;2.90;1.20;;;;;;;;;;5093838;28;20028;-44
2023/04/09 07:12:37;;;;;;;3.65;1.30;;;;;;;;;;5093103;28;20020;-44
2023/04/09 07:15:08;;;;;;;2.92;1.40;;;;;;;;;;5093757;28;20028;-44
2023/04/09 07:17:35;;;;;;;3.85;1.42;;;;;;;;;;5093654;28;20028;-44
2023/04/09 07:20:02;;;;;;;3.28;1.27;;;;;;;;;;5093676;28;20111;-46
2023/04/09 07:22:30;;;;;;;3.45;1.42;;;;;;;;;;5093388;28;20492;-43
2023/04/09 07:24:57;;;;;;;2.22;1.30;;;;;;;;;;5093506;28;20050;-44
2023/04/09 07:27:25;;;;;;;3.38;1.25;;;;;;;;;;5093342;28;20033;-44
2023/04/09 07:29:52;;;;;;;2.97;1.30;;;;;;;;;;5093423;28;20024;-44
2023/04/09 07:32:19;;;;;;;3.10;1.30;;;;;;;;;;5093113;28;20086;-43
2023/04/09 07:34:46;;;;;;;4.25;1.20;;;;;;;;;;5093294;28;20024;-45
2023/04/09 07:37:13;;;;;;;2.72;1.30;;;;;;;;;;5093275;28;20432;-44
2023/04/09 07:39:41;;;;;;;2.80;1.27;;;;;;;;;;5093234;28;20016;-45
2023/04/09 07:42:08;;;;;;;3.63;1.25;;;;;;;;;;5093001;28;20024;-46
2023/04/09 07:44:36;;;;;;;4.18;1.33;;;;;;;;;;5093119;28;20021;-45
2023/04/09 07:47:07;;;;;;;4.25;1.50;;;;;;;;;;5092882;28;20047;-44
2023/04/09 07:49:36;;;;;;;3.80;1.30;;;;;;;;;;5093055;28;20027;-45
2023/04/09 07:52:03;;;;;;;4.68;1.30;;;;;;;;;;5092815;28;20035;-45
2023/04/09 07:54:30;;;;;;;3.25;1.20;;;;;;;;;;5092852;28;20031;-44
2023/04/09 07:56:57;;;;;;;6.20;1.50;;;;;;;;;;5092808;28;20030;-47
2023/04/09 07:59:26;;;;;;;3.45;1.20;;;;;;;;;;5092758;28;20028;-44
2023/04/09 08:01:53;;;;;;;4.32;1.33;;;;;;;;;;5092502;28;20032;-45
2023/04/09 08:04:20;;;;;;;3.10;1.02;;;;;;;;;;5092718;28;20028;-45
2023/04/09 08:06:49;;;;;;;4.15;1.25;;;;;;;;;;5092630;28;20032;-44
2023/04/09 08:09:17;;;;;;;7.35;1.30;;;;;;;;;;5092511;28;20031;-45
2023/04/09 08:11:47;;;;;;;4.15;1.27;;;;;;;;;;5092613;28;20024;-45
2023/04/09 08:14:15;;;;;;;3.30;1.48;;;;;;;;;;5092621;28;20020;-44
2023/04/09 08:16:46;;;;;;;6.70;1.60;;;;;;;;;;5092523;28;20107;-44
2023/04/09 08:19:13;;;;;;;3.72;1.15;;;;;;;;;;5092420;28;20035;-44
2023/04/09 08:21:45;;;;;;;2.85;1.10;;;;;;;;;;5092261;28;20103;-44
2023/04/09 08:24:12;;;;;;;4.15;1.38;;;;;;;;;;5091594;28;20331;-44
2023/04/09 08:26:39;;;;;;;2.58;1.10;;;;;;;;;;5092291;28;20382;-45
2023/04/09 08:29:07;;;;;;;3.97;1.38;;;;;;;;;;5092350;28;20026;-45
2023/04/09 08:31:35;;;;;;;4.25;0.93;;;;;;;;;;5092081;28;20109;-44
2023/04/09 08:34:02;;;;;;;2.47;1.02;;;;;;;;;;5092140;28;20493;-44
2023/04/09 08:36:30;;;;;;;2.92;1.10;;;;;;;;;;5092257;28;20114;-45
2023/04/09 08:38:59;;;;;;;3.63;1.42;;;;;;;;;;5092079;28;20050;-44
2023/04/09 08:41:30;;;;;;;5.88;1.38;;;;;;;;;;5091916;28;20059;-45
2023/04/09 08:43:57;;;;;;;4.55;1.40;;;;;;;;;;5091971;28;20474;-45
2023/04/09 08:46:25;;;;;;;2.50;1.20;;;;;;;;;;5092064;28;20103;-44
2023/04/09 08:48:52;;;;;;;4.45;1.23;;;;;;;;;;5091831;28;20082;-44
2023/04/09 08:51:20;;;;;;;3.72;1.33;;;;;;;;;;5091949;28;20028;-47
2023/04/09 08:53:49;;;;;;;3.63;1.20;;;;;;;;;;5091998;28;20016;-44
2023/04/09 08:56:16;;;;;;;3.17;1.02;;;;;;;;;;5091768;28;20452;-44
2023/04/09 08:58:43;;;;;;;3.90;1.20;;;;;;;;;;5091931;28;20024;-44
2023/04/09 09:01:30;;;;;;;5.60;1.25;;;;;;;;;;5091822;28;20031;-45
2023/04/09 09:03:59;;;;;;;2.25;1.05;;;;;;;;;;5091836;28;20461;-44
2023/04/09 09:06:27;;;;;;;5.25;1.85;;;;;;;;;;5091787;28;20068;-44
2023/04/09 09:09:05;;;;;;;2.92;1.10;;;;;;;;;;5091803;28;20036;-44
2023/04/09 09:11:52;;;;;;;2.58;1.17;;;;;;;;;;5091886;28;20158;-45
2023/04/09 09:14:19;;;;;;;3.25;1.25;;;;;;;;;;5091781;28;20069;-44
2023/04/09 09:16:56;;;;;;;2.60;1.17;;;;;;;;;;5091677;28;20099;-44
2023/04/09 09:19:26;;;;;;;4.70;1.13;;;;;;;;;;5091616;28;20218;-44
2023/04/09 09:21:56;;;;;;;3.40;1.20;;;;;;;;;;5091641;28;20485;-44
2023/04/09 09:24:23;;;;;;;2.72;0.90;;;;;;;;;;5073511;28;20408;-44
2023/04/09 09:26:50;;;;;;;2.55;1.42;;;;;;;;;;5091522;28;20028;-47
2023/04/09 09:29:18;;;;;;;2.10;0.90;;;;;;;;;;5091586;28;20016;-48
2023/04/09 09:31:50;;;;;;;2.90;1.00;;;;;;;;;;5091217;28;20418;-49
2023/04/09 09:34:18;;;;;;;3.85;1.27;;;;;;;;;;5091626;28;20027;-47
2023/04/09 09:36:45;;;;;;;3.60;1.13;;;;;;;;;;5094353;28;20029;-45
2023/04/09 09:39:12;;;;;;;5.63;1.33;;;;;;;;;;5095608;28;20073;-45
2023/04/09 09:41:43;;;;;;;2.42;1.00;;;;;;;;;;5095313;28;20385;-45
2023/04/09 09:44:11;;;;;;;2.72;1.30;;;;;;;;;;5095479;28;20020;-45
2023/04/09 09:46:41;;;;;;;2.30;1.15;;;;;;;;;;5095346;28;20016;-45
2023/04/09 09:49:08;;;;;;;2.03;1.10;;;;;;;;;;5095358;28;20523;-45
2023/04/09 09:51:40;;;;;;;2.22;1.10;;;;;;;;;;5095230;28;20059;-46
2023/04/09 09:54:11;;;;;;;4.63;1.40;;;;;;;;;;5095342;28;20035;-45
2023/04/09 09:56:40;;;;;;;3.60;1.05;;;;;;;;;;5095163;28;20493;-45
2023/04/09 09:59:12;;;;;;;4.10;1.10;;;;;;;;;;5094995;28;20051;-44
2023/04/09 10:01:40;;;;;;;2.30;1.00;;;;;;;;;;5095046;28;20027;-45
2023/04/09 10:04:12;;;;;;;5.50;1.08;;;;;;;;;;5094973;28;20115;-44
2023/04/09 10:06:41;;;;;;;4.80;1.38;;;;;;;;;;5094903;28;20020;-44
2023/04/09 10:09:08;;;;;;;3.35;1.00;;;;;;;;;;5094952;28;20044;-44
2023/04/09 10:11:36;;;;;;;3.70;0.98;;;;;;;;;;5094798;28;20031;-44
2023/04/09 10:14:06;;;;;;;3.15;1.20;;;;;;;;;;5094918;28;20024;-45
2023/04/09 10:16:34;;;;;;;3.95;1.02;;;;;;;;;;5094886;28;20020;-44
2023/04/09 10:19:02;;;;;;;2.35;1.08;;;;;;;;;;5095130;28;20020;-45
2023/04/09 10:21:29;;;;;;;2.33;1.35;;;;;;;;;;5094553;28;20028;-45
2023/04/09 10:23:57;;;;;;;4.28;1.08;;;;;;;;;;5094638;28;20117;-45
2023/04/09 10:26:29;;;;;;;2.33;1.20;;;;;;;;;;5094703;28;20385;-47
2023/04/09 10:29:12;;;;;;;3.90;1.10;;;;;;;;;;5094565;28;20510;-45
2023/04/09 10:31:59;;;;;;;2.90;0.82;;;;;;;;;;5094196;28;20059;-46
2023/04/09 10:34:27;;;;;;;3.28;0.98;;;;;;;;;;5077395;28;20512;-45
2023/04/09 10:36:58;;;;;;;2.47;1.10;;;;;;;;;;5094496;28;20028;-46
2023/04/09 10:39:28;;;;;;;4.38;1.17;;;;;;;;;;5094282;28;20107;-47
2023/04/09 10:41:56;;;;;;;2.38;1.00;;;;;;;;;;5076308;28;20020;-44
2023/04/09 10:44:25;;;;;;;2.78;0.82;;;;;;;;;;5094396;28;20028;-45
2023/04/09 10:46:55;;;;;;;2.47;1.30;;;;;;;;;;5093689;28;20063;-45
2023/04/09 10:49:23;;;;;;;3.80;1.25;;;;;;;;;;5093974;28;20359;-44
2023/04/09 10:51:54;;;;;;;3.08;1.02;;;;;;;;;;5094174;28;20074;-45
2023/04/09 10:54:33;;;;;;;3.22;1.20;;;;;;;;;;5094188;28;20095;-44
2023/04/09 10:57:09;;;;;;;2.55;1.23;;;;;;;;;;5094099;28;20028;-45
2023/04/09 10:59:36;;;;;;;2.58;1.00;;;;;;;;;;5094006;28;20542;-45
2023/04/09 11:02:07;;;;;;;1.85;1.00;;;;;;;;;;5093869;28;20024;-45
2023/04/09 11:04:41;;;;;;;1.95;1.10;;;;;;;;;;5093948;28;20028;-44
2023/04/09 11:07:09;;;;;;;3.05;1.20;;;;;;;;;;5093860;28;20061;-46
2023/04/09 11:09:36;;;;;;;1.77;0.90;;;;;;;;;;5093784;28;20024;-44
2023/04/09 11:12:03;;;;;;;1.65;0.85;;;;;;;;;;5093737;28;20043;-46
2023/04/09 11:14:30;;;;;;;2.85;1.00;;;;;;;;;;5093685;28;20112;-45
2023/04/09 11:16:57;;;;;;;2.13;0.90;;;;;;;;;;5093688;28;20024;-44
2023/04/09 11:19:25;;;;;;;2.33;0.82;;;;;;;;;;5093678;28;20035;-44
2023/04/09 11:21:52;;;;;;;2.75;1.30;;;;;;;;;;5093659;28;20063;-47
2023/04/09 11:24:19;;;;;;;1.77;0.98;;;;;;;;;;5093554;28;20020;-46
2023/04/09 11:26:47;;;;;;;2.08;0.80;;;;;;;;;;5093412;28;20016;-48
2023/04/09 11:29:14;;;;;;;3.33;1.27;;;;;;;;;;5093325;28;20032;-48
2023/04/09 11:31:43;;;;;;;1.38;0.82;;;;;;;;;;5093162;28;20564;-45
2023/04/09 11:34:14;;;;;;;1.48;0.80;;;;;;;;;;5093317;28;20024;-46
2023/04/09 11:36:41;;;;;;;3.80;1.00;;;;;;;;;;5093604;28;20077;-44
2023/04/09 11:39:08;;;;;;;1.80;1.00;;;;;;;;;;5093204;28;20429;-45
2023/04/09 11:41:35;;;;;;;3.47;1.33;;;;;;;;;;5093143;28;20024;-45
2023/04/09 11:44:05;;;;;;;2.70;0.98;;;;;;;;;;5093123;28;20028;-45
2023/04/09 11:46:35;;;;;;;3.58;1.10;;;;;;;;;;5093133;28;20078;-44
2023/04/09 11:49:03;;;;;;;2.38;1.08;;;;;;;;;;5093101;28;20119;-44
2023/04/09 11:51:31;;;;;;;2.00;1.00;;;;;;;;;;5092946;28;20113;-45
2023/04/09 11:54:07;;;;;;;3.20;1.08;;;;;;;;;;5093005;28;20020;-45
2023/04/09 11:56:35;;;;;;;1.95;1.10;;;;;;;;;;5092905;28;20024;-44
2023/04/09 11:59:03;;;;;;;2.50;1.00;;;;;;;;;;5092787;28;20069;-45
2023/04/09 12:01:33;;;;;;;3.40;1.08;;;;;;;;;;5092752;28;20024;-45
2023/04/09 12:04:01;;;;;;;1.98;0.95;;;;;;;;;;5092779;28;20012;-44
2023/04/09 12:06:29;;;;;;;2.95;1.20;;;;;;;;;;5092711;28;20039;-46
2023/04/09 12:08:56;;;;;;;2.30;1.10;;;;;;;;;;5092462;28;20032;-44
2023/04/09 12:11:31;;;;;;;1.85;1.00;;;;;;;;;;5092622;28;20570;-45
2023/04/09 12:14:05;;;;;;;4.82;1.10;;;;;;;;;;5092658;28;20024;-44
2023/04/09 12:16:35;;;;;;;2.92;1.30;;;;;;;;;;5092511;28;20048;-45
2023/04/09 12:19:02;;;;;;;2.60;1.10;;;;;;;;;;5092542;28;20095;-45
2023/04/09 12:21:47;;;;;;;3.50;1.27;;;;;;;;;;5092421;28;20023;-46
2023/04/09 12:24:16;;;;;;;3.70;1.20;;;;;;;;;;5092364;28;20031;-46
2023/04/09 12:26:43;;;;;;;3.67;1.10;;;;;;;;;;5092347;28;20557;-47
2023/04/09 12:29:10;;;;;;;2.22;1.00;;;;;;;;;;5092347;28;20054;-50
2023/04/09 12:31:37;;;;;;;2.97;1.10;;;;;;;;;;5092018;28;20047;-45
2023/04/09 12:34:04;;;;;;;4.97;1.23;;;;;;;;;;5092312;28;20020;-48
2023/04/09 12:36:31;;;;;;;2.55;1.17;;;;;;;;;;5092152;28;20028;-46
2023/04/09 12:38:58;;;;;;;4.20;1.00;;;;;;;;;;5092431;28;20059;-45
2023/04/09 12:41:25;;;;;;;2.63;1.10;;;;;;;;;;5092025;28;20081;-45
2023/04/09 12:43:52;;;;;;;1.88;1.13;;;;;;;;;;5092083;28;20065;-45
2023/04/09 12:46:19;;;;;;;4.45;1.15;;;;;;;;;;5091927;28;20035;-45
2023/04/09 12:48:46;;;;;;;4.40;1.27;;;;;;;;;;5091946;28;20557;-45
2023/04/09 12:51:13;;;;;;;3.78;1.40;;;;;;;;;;5091884;28;20028;-44
2023/04/09 12:53:40;;;;;;;2.92;1.25;;;;;;;;;;5091974;28;20056;-44
2023/04/09 12:56:08;;;;;;;5.07;1.50;;;;;;;;;;5091947;28;20032;-45
2023/04/09 12:58:36;;;;;;;3.42;1.20;;;;;;;;;;5091952;28;20485;-44
2023/04/09 13:01:03;;;;;;;4.53;1.00;;;;;;;;;;5091714;28;20385;-47
2023/04/09 13:03:31;;;;;;;2.60;1.00;;;;;;;;;;5091883;28;20020;-45
2023/04/09 13:05:58;;;;;;;3.90;1.17;;;;;;;;;;5091783;28;20047;-45
2023/04/09 13:08:25;;;;;;;4.75;1.25;;;;;;;;;;5091742;28;20040;-45
2023/04/09 13:10:52;;;;;;;2.80;1.13;;;;;;;;;;5091163;28;20016;-45
2023/04/09 13:13:19;;;;;;;6.13;1.27;;;;;;;;;;5091716;28;20031;-46
2023/04/09 13:15:46;;;;;;;2.95;1.13;;;;;;;;;;5073469;28;20028;-46
2023/04/09 13:18:13;;;;;;;4.50;1.40;;;;;;;;;;5091711;28;20039;-44
2023/04/09 13:20:40;;;;;;;3.13;1.30;;;;;;;;;;5091672;28;20028;-46
2023/04/09 13:23:07;;;;;;;3.05;1.27;;;;;;;;;;5091669;28;20099;-44
2023/04/09 13:25:34;;;;;;;3.95;1.23;;;;;;;;;;5091699;28;20046;-44
2023/04/09 13:28:01;;;;;;;2.60;1.40;;;;;;;;;;5091576;28;20028;-45
2023/04/09 13:30:28;;;;;;;2.58;1.17;;;;;;;;;;5091619;28;20024;-45
2023/04/09 13:32:55;;;;;;;5.38;1.38;;;;;;;;;;5091319;28;20076;-45
2023/04/09 13:35:22;;;;;;;4.68;1.38;;;;;;;;;;5091584;28;20570;-45
2023/04/09 13:37:49;;;;;;;1.67;1.08;;;;;;;;;;5091485;28;20036;-45
2023/04/09 13:40:16;;;;;;;3.92;1.40;;;;;;;;;;5091465;28;20439;-44
2023/04/09 13:42:43;;;;;;;4.55;1.50;;;;;;;;;;5091495;28;20024;-45
2023/04/09 13:45:10;;;;;;;1.77;1.20;;;;;;;;;;5091423;28;20024;-46
2023/04/09 13:47:37;;;;;;;3.28;1.10;;;;;;;;;;5091387;28;20119;-45
2023/04/09 13:50:04;;;;;;;4.10;1.23;;;;;;;;;;5091477;28;20058;-44
2023/04/09 13:52:32;;;;;;;2.30;1.10;;;;;;;;;;5091304;28;20024;-46
2023/04/09 13:54:59;;;;;;;2.08;1.20;;;;;;;;;;5091411;28;20477;-48
2023/04/09 13:57:26;;;;;;;3.88;1.15;;;;;;;;;;5091338;28;20050;-48
2023/04/09 13:59:53;;;;;;;3.00;1.40;;;;;;;;;;5091424;28;20024;-45
2023/04/09 14:02:20;;;;;;;2.88;1.10;;;;;;;;;;5091247;28;20487;-45
2023/04/09 14:04:47;;;;;;;2.75;1.35;;;;;;;;;;5091371;28;20442;-45
2023/04/09 14:07:14;;;;;;;2.97;1.10;;;;;;;;;;5091216;28;20089;-44
2023/04/09 14:09:41;;;;;;;1.92;1.02;;;;;;;;;;5091162;28;20024;-44
2023/04/09 14:12:08;;;;;;;1.83;1.05;;;;;;;;;;5090999;28;20456;-49
2023/04/09 14:14:35;;;;;;;2.90;1.17;;;;;;;;;;5091221;28;20077;-44
2023/04/09 14:17:02;;;;;;;3.72;1.52;;;;;;;;;;5091100;28;20020;-45
2023/04/09 14:19:29;;;;;;;2.38;1.13;;;;;;;;;;5091095;28;20065;-45
2023/04/09 14:21:56;;;;;;;3.40;1.20;;;;;;;;;;5091029;28;20493;-45
2023/04/09 14:24:23;;;;;;;2.13;1.08;;;;;;;;;;5094644;28;20020;-45
2023/04/09 14:26:52;;;;;;;2.97;1.10;;;;;;;;;;5094678;28;20485;-45
2023/04/09 14:29:19;;;;;;;2.22;0.90;;;;;;;;;;5094555;28;20107;-45
2023/04/09 14:31:46;;;;;;;5.57;1.00;;;;;;;;;;5094182;28;20067;-47
2023/04/09 14:34:13;;;;;;;4.75;1.20;;;;;;;;;;5094609;28;20022;-46
2023/04/09 14:36:40;;;;;;;4.72;1.10;;;;;;;;;;5094537;28;20482;-45
2023/04/09 14:39:07;;;;;;;2.45;1.23;;;;;;;;;;5094438;28;20103;-46
2023/04/09 14:41:35;;;;;;;1.95;1.10;;;;;;;;;;5094368;28;20492;-47
2023/04/09 14:44:02;;;;;;;3.67;1.40;;;;;;;;;;5094223;28;20095;-46
2023/04/09 14:46:29;;;;;;;4.55;1.25;;;;;;;;;;5094337;28;20020;-44
2023/04/09 14:48:56;;;;;;;3.00;1.20;;;;;;;;;;5094533;28;20093;-44